sensor_id;sensor_type;location;lat;lon;timestamp;P1;durP1;ratioP1;P2;durP2;ratioP2
14858;SDS011;7521;51.700;6.874;2022-10-16T00:01:53;7.00;;;4.43;;
14858;SDS011;7521;51.700;6.874;2022-10-16T00:04:59;11.93;;;5.50;;
14858;SDS011;7521;51.700;6.874;2022-10-16T00:08:04;10.50;;;5.03;;
14858;SDS011;7521;51.700;6.874;2022-10-16T00:14:14;10.32;;;5.53;;
14858;SDS011;7521;51.700;6.874;2022-10-16T00:17:20;11.13;;;5.53;;
14858;SDS011;7521;51.700;6.874;2022-10-16T00:20:25;9.00;;;5.03;;
14858;SDS011;7521;51.700;6.874;2022-10-16T00:23:30;9.82;;;5.07;;
14858;SDS011;7521;51.700;6.874;2022-10-16T00:26:36;10.93;;;5.50;;
14858;SDS011;7521;51.700;6.874;2022-10-16T00:29:42;10.13;;;5.50;;
14858;SDS011;7521;51.700;6.874;2022-10-16T00:32:47;11.20;;;5.40;;
14858;SDS011;7521;51.700;6.874;2022-10-16T00:35:52;9.45;;;5.72;;
14858;SDS011;7521;51.700;6.874;2022-10-16T00:38:57;10.25;;;5.70;;
14858;SDS011;7521;51.700;6.874;2022-10-16T00:42:04;11.17;;;6.13;;
14858;SDS011;7521;51.700;6.874;2022-10-16T00:45:09;13.10;;;6.15;;
14858;SDS011;7521;51.700;6.874;2022-10-16T00:48:14;10.70;;;5.80;;
14858;SDS011;7521;51.700;6.874;2022-10-16T00:51:22;12.67;;;6.10;;
14858;SDS011;7521;51.700;6.874;2022-10-16T00:54:29;14.60;;;6.03;;
14858;SDS011;7521;51.700;6.874;2022-10-16T00:57:35;14.90;;;8.60;;
14858;SDS011;7521;51.700;6.874;2022-10-16T01:00:41;10.40;;;6.73;;
14858;SDS011;7521;51.700;6.874;2022-10-16T01:03:46;9.47;;;6.07;;
14858;SDS011;7521;51.700;6.874;2022-10-16T01:06:57;12.53;;;6.57;;
14858;SDS011;7521;51.700;6.874;2022-10-16T01:10:07;10.27;;;5.73;;
14858;SDS011;7521;51.700;6.874;2022-10-16T01:13:36;12.03;;;6.10;;
14858;SDS011;7521;51.700;6.874;2022-10-16T01:16:43;14.13;;;6.93;;
14858;SDS011;7521;51.700;6.874;2022-10-16T01:19:51;17.83;;;5.90;;
14858;SDS011;7521;51.700;6.874;2022-10-16T01:26:13;10.20;;;5.93;;
14858;SDS011;7521;51.700;6.874;2022-10-16T01:29:31;13.87;;;6.43;;
14858;SDS011;7521;51.700;6.874;2022-10-16T01:35:45;10.68;;;5.18;;
14858;SDS011;7521;51.700;6.874;2022-10-16T01:38:52;11.20;;;5.33;;
14858;SDS011;7521;51.700;6.874;2022-10-16T01:42:00;12.60;;;5.80;;
14858;SDS011;7521;51.700;6.874;2022-10-16T01:45:06;17.03;;;10.67;;
14858;SDS011;7521;51.700;6.874;2022-10-16T01:48:13;13.00;;;8.27;;
14858;SDS011;7521;51.700;6.874;2022-10-16T01:51:19;20.70;;;15.10;;
14858;SDS011;7521;51.700;6.874;2022-10-16T01:54:26;15.17;;;9.40;;
14858;SDS011;7521;51.700;6.874;2022-10-16T01:57:32;11.63;;;6.27;;
14858;SDS011;7521;51.700;6.874;2022-10-16T02:00:39;9.77;;;5.70;;
14858;SDS011;7521;51.700;6.874;2022-10-16T02:03:46;8.70;;;5.03;;
14858;SDS011;7521;51.700;6.874;2022-10-16T02:06:52;10.97;;;5.60;;
14858;SDS011;7521;51.700;6.874;2022-10-16T02:09:57;8.83;;;5.10;;
14858;SDS011;7521;51.700;6.874;2022-10-16T02:13:13;10.50;;;5.37;;
14858;SDS011;7521;51.700;6.874;2022-10-16T02:16:21;8.10;;;5.20;;
14858;SDS011;7521;51.700;6.874;2022-10-16T02:19:26;10.32;;;5.22;;
14858;SDS011;7521;51.700;6.874;2022-10-16T02:22:35;7.20;;;4.78;;
14858;SDS011;7521;51.700;6.874;2022-10-16T02:25:41;7.53;;;4.90;;
14858;SDS011;7521;51.700;6.874;2022-10-16T02:28:51;8.40;;;5.17;;
14858;SDS011;7521;51.700;6.874;2022-10-16T02:32:01;7.10;;;4.80;;
14858;SDS011;7521;51.700;6.874;2022-10-16T02:35:08;7.33;;;5.03;;
14858;SDS011;7521;51.700;6.874;2022-10-16T02:38:14;8.37;;;5.27;;
14858;SDS011;7521;51.700;6.874;2022-10-16T02:41:20;8.27;;;5.00;;
14858;SDS011;7521;51.700;6.874;2022-10-16T02:44:26;9.87;;;4.53;;
14858;SDS011;7521;51.700;6.874;2022-10-16T02:47:31;6.72;;;4.63;;
14858;SDS011;7521;51.700;6.874;2022-10-16T02:50:36;7.00;;;4.33;;
14858;SDS011;7521;51.700;6.874;2022-10-16T02:53:41;6.45;;;4.30;;
14858;SDS011;7521;51.700;6.874;2022-10-16T02:56:46;8.80;;;5.20;;
14858;SDS011;7521;51.700;6.874;2022-10-16T02:59:51;7.32;;;4.78;;
14858;SDS011;7521;51.700;6.874;2022-10-16T03:02:57;7.25;;;4.40;;
14858;SDS011;7521;51.700;6.874;2022-10-16T03:06:02;6.70;;;4.47;;
14858;SDS011;7521;51.700;6.874;2022-10-16T03:09:07;5.93;;;4.63;;
14858;SDS011;7521;51.700;6.874;2022-10-16T03:12:12;9.33;;;5.10;;
14858;SDS011;7521;51.700;6.874;2022-10-16T03:15:18;7.97;;;4.95;;
14858;SDS011;7521;51.700;6.874;2022-10-16T03:18:23;12.20;;;5.60;;
14858;SDS011;7521;51.700;6.874;2022-10-16T03:21:28;11.45;;;5.00;;
14858;SDS011;7521;51.700;6.874;2022-10-16T03:24:33;5.70;;;4.38;;
14858;SDS011;7521;51.700;6.874;2022-10-16T03:27:38;9.00;;;4.60;;
14858;SDS011;7521;51.700;6.874;2022-10-16T03:30:44;11.25;;;5.53;;
14858;SDS011;7521;51.700;6.874;2022-10-16T03:33:49;9.20;;;5.07;;
14858;SDS011;7521;51.700;6.874;2022-10-16T03:36:54;8.63;;;5.03;;
14858;SDS011;7521;51.700;6.874;2022-10-16T03:39:59;7.03;;;5.03;;
14858;SDS011;7521;51.700;6.874;2022-10-16T03:43:05;9.77;;;5.93;;
14858;SDS011;7521;51.700;6.874;2022-10-16T03:46:10;9.75;;;5.88;;
14858;SDS011;7521;51.700;6.874;2022-10-16T03:49:15;9.15;;;5.55;;
14858;SDS011;7521;51.700;6.874;2022-10-16T03:52:20;9.87;;;5.27;;
14858;SDS011;7521;51.700;6.874;2022-10-16T03:55:25;6.15;;;4.85;;
14858;SDS011;7521;51.700;6.874;2022-10-16T03:58:30;7.50;;;4.70;;
14858;SDS011;7521;51.700;6.874;2022-10-16T04:01:36;6.75;;;4.50;;
14858;SDS011;7521;51.700;6.874;2022-10-16T04:04:41;5.70;;;4.13;;
14858;SDS011;7521;51.700;6.874;2022-10-16T04:07:46;11.10;;;5.28;;
14858;SDS011;7521;51.700;6.874;2022-10-16T04:10:51;5.63;;;3.77;;
14858;SDS011;7521;51.700;6.874;2022-10-16T04:13:56;5.57;;;3.92;;
14858;SDS011;7521;51.700;6.874;2022-10-16T04:17:02;6.00;;;4.10;;
14858;SDS011;7521;51.700;6.874;2022-10-16T04:20:07;7.30;;;3.97;;
14858;SDS011;7521;51.700;6.874;2022-10-16T04:23:12;6.33;;;3.67;;
14858;SDS011;7521;51.700;6.874;2022-10-16T04:26:17;6.35;;;3.80;;
14858;SDS011;7521;51.700;6.874;2022-10-16T04:29:22;5.10;;;3.60;;
14858;SDS011;7521;51.700;6.874;2022-10-16T04:32:28;7.50;;;3.67;;
14858;SDS011;7521;51.700;6.874;2022-10-16T04:35:33;6.60;;;3.30;;
14858;SDS011;7521;51.700;6.874;2022-10-16T04:38:38;5.15;;;3.20;;
14858;SDS011;7521;51.700;6.874;2022-10-16T04:41:44;4.67;;;3.03;;
14858;SDS011;7521;51.700;6.874;2022-10-16T04:44:49;8.77;;;3.30;;
14858;SDS011;7521;51.700;6.874;2022-10-16T04:47:58;4.17;;;2.53;;
14858;SDS011;7521;51.700;6.874;2022-10-16T04:51:03;6.80;;;3.10;;
14858;SDS011;7521;51.700;6.874;2022-10-16T04:54:09;6.43;;;2.57;;
14858;SDS011;7521;51.700;6.874;2022-10-16T04:57:14;5.60;;;2.87;;
14858;SDS011;7521;51.700;6.874;2022-10-16T05:00:19;6.50;;;2.60;;
14858;SDS011;7521;51.700;6.874;2022-10-16T05:03:25;3.80;;;2.20;;
14858;SDS011;7521;51.700;6.874;2022-10-16T05:06:30;3.92;;;2.60;;
14858;SDS011;7521;51.700;6.874;2022-10-16T05:09:35;5.30;;;2.70;;
14858;SDS011;7521;51.700;6.874;2022-10-16T05:12:40;4.50;;;2.65;;
14858;SDS011;7521;51.700;6.874;2022-10-16T05:15:48;4.07;;;2.35;;
14858;SDS011;7521;51.700;6.874;2022-10-16T05:18:53;4.23;;;2.30;;
14858;SDS011;7521;51.700;6.874;2022-10-16T05:21:58;4.30;;;2.30;;
14858;SDS011;7521;51.700;6.874;2022-10-16T05:25:04;5.10;;;2.50;;
14858;SDS011;7521;51.700;6.874;2022-10-16T05:28:09;3.93;;;2.20;;
14858;SDS011;7521;51.700;6.874;2022-10-16T05:31:14;13.43;;;2.95;;
14858;SDS011;7521;51.700;6.874;2022-10-16T05:34:20;6.15;;;2.63;;
14858;SDS011;7521;51.700;6.874;2022-10-16T05:37:26;4.97;;;2.13;;
14858;SDS011;7521;51.700;6.874;2022-10-16T05:40:31;13.10;;;2.57;;
14858;SDS011;7521;51.700;6.874;2022-10-16T05:43:37;5.85;;;2.53;;
14858;SDS011;7521;51.700;6.874;2022-10-16T05:46:42;7.78;;;2.75;;
14858;SDS011;7521;51.700;6.874;2022-10-16T05:49:47;4.43;;;2.40;;
14858;SDS011;7521;51.700;6.874;2022-10-16T05:52:52;3.67;;;2.20;;
14858;SDS011;7521;51.700;6.874;2022-10-16T05:55:58;5.43;;;2.53;;
14858;SDS011;7521;51.700;6.874;2022-10-16T05:59:03;8.80;;;2.63;;
14858;SDS011;7521;51.700;6.874;2022-10-16T06:02:11;5.00;;;2.40;;
14858;SDS011;7521;51.700;6.874;2022-10-16T06:05:17;5.23;;;2.20;;
14858;SDS011;7521;51.700;6.874;2022-10-16T06:08:22;4.25;;;2.28;;
14858;SDS011;7521;51.700;6.874;2022-10-16T06:11:28;6.70;;;2.80;;
14858;SDS011;7521;51.700;6.874;2022-10-16T06:14:34;7.00;;;2.43;;
14858;SDS011;7521;51.700;6.874;2022-10-16T06:17:39;2.17;;;1.75;;
14858;SDS011;7521;51.700;6.874;2022-10-16T06:20:44;4.55;;;2.33;;
14858;SDS011;7521;51.700;6.874;2022-10-16T06:23:49;3.33;;;1.70;;
14858;SDS011;7521;51.700;6.874;2022-10-16T06:26:54;2.17;;;1.43;;
14858;SDS011;7521;51.700;6.874;2022-10-16T06:30:00;2.63;;;1.35;;
14858;SDS011;7521;51.700;6.874;2022-10-16T06:33:05;5.13;;;1.77;;
14858;SDS011;7521;51.700;6.874;2022-10-16T06:36:14;6.63;;;1.70;;
14858;SDS011;7521;51.700;6.874;2022-10-16T06:39:20;3.33;;;1.67;;
14858;SDS011;7521;51.700;6.874;2022-10-16T06:42:25;2.38;;;1.50;;
14858;SDS011;7521;51.700;6.874;2022-10-16T06:45:30;4.40;;;1.90;;
14858;SDS011;7521;51.700;6.874;2022-10-16T06:48:35;1.80;;;1.20;;
14858;SDS011;7521;51.700;6.874;2022-10-16T06:51:41;4.43;;;1.60;;
14858;SDS011;7521;51.700;6.874;2022-10-16T06:54:46;3.37;;;1.83;;
14858;SDS011;7521;51.700;6.874;2022-10-16T06:57:51;3.30;;;1.55;;
14858;SDS011;7521;51.700;6.874;2022-10-16T07:00:57;4.78;;;2.38;;
14858;SDS011;7521;51.700;6.874;2022-10-16T07:04:02;1.70;;;1.30;;
14858;SDS011;7521;51.700;6.874;2022-10-16T07:07:07;3.03;;;1.70;;
14858;SDS011;7521;51.700;6.874;2022-10-16T07:10:12;3.55;;;1.75;;
14858;SDS011;7521;51.700;6.874;2022-10-16T07:13:17;4.80;;;1.80;;
14858;SDS011;7521;51.700;6.874;2022-10-16T07:16:26;3.00;;;1.77;;
14858;SDS011;7521;51.700;6.874;2022-10-16T07:19:32;2.57;;;1.70;;
14858;SDS011;7521;51.700;6.874;2022-10-16T07:22:37;4.78;;;1.80;;
14858;SDS011;7521;51.700;6.874;2022-10-16T07:25:42;1.80;;;1.70;;
14858;SDS011;7521;51.700;6.874;2022-10-16T07:28:47;3.40;;;1.60;;
14858;SDS011;7521;51.700;6.874;2022-10-16T07:31:53;6.80;;;2.13;;
14858;SDS011;7521;51.700;6.874;2022-10-16T07:34:58;3.80;;;1.57;;
14858;SDS011;7521;51.700;6.874;2022-10-16T07:38:03;3.28;;;1.73;;
14858;SDS011;7521;51.700;6.874;2022-10-16T07:41:09;3.03;;;1.60;;
14858;SDS011;7521;51.700;6.874;2022-10-16T07:44:15;2.50;;;1.63;;
14858;SDS011;7521;51.700;6.874;2022-10-16T07:47:20;3.17;;;1.67;;
14858;SDS011;7521;51.700;6.874;2022-10-16T07:50:26;5.37;;;2.17;;
14858;SDS011;7521;51.700;6.874;2022-10-16T07:53:31;4.32;;;1.75;;
14858;SDS011;7521;51.700;6.874;2022-10-16T07:56:36;6.20;;;1.70;;
14858;SDS011;7521;51.700;6.874;2022-10-16T07:59:42;6.05;;;2.05;;
14858;SDS011;7521;51.700;6.874;2022-10-16T08:02:47;5.72;;;1.85;;
14858;SDS011;7521;51.700;6.874;2022-10-16T08:05:52;6.00;;;1.73;;
14858;SDS011;7521;51.700;6.874;2022-10-16T08:08:57;1.97;;;1.57;;
14858;SDS011;7521;51.700;6.874;2022-10-16T08:12:04;3.97;;;2.00;;
14858;SDS011;7521;51.700;6.874;2022-10-16T08:15:10;5.13;;;2.07;;
14858;SDS011;7521;51.700;6.874;2022-10-16T08:18:15;3.40;;;1.60;;
14858;SDS011;7521;51.700;6.874;2022-10-16T08:21:21;3.23;;;1.37;;
14858;SDS011;7521;51.700;6.874;2022-10-16T08:24:28;2.63;;;1.73;;
14858;SDS011;7521;51.700;6.874;2022-10-16T08:27:35;4.40;;;1.63;;
14858;SDS011;7521;51.700;6.874;2022-10-16T08:30:40;5.57;;;1.60;;
14858;SDS011;7521;51.700;6.874;2022-10-16T08:33:46;2.47;;;1.63;;
14858;SDS011;7521;51.700;6.874;2022-10-16T08:36:54;5.37;;;1.90;;
14858;SDS011;7521;51.700;6.874;2022-10-16T08:40:00;2.13;;;1.30;;
14858;SDS011;7521;51.700;6.874;2022-10-16T08:46:30;5.47;;;1.53;;
14858;SDS011;7521;51.700;6.874;2022-10-16T08:49:41;6.00;;;1.57;;
14858;SDS011;7521;51.700;6.874;2022-10-16T08:52:47;1.47;;;1.20;;
14858;SDS011;7521;51.700;6.874;2022-10-16T08:55:53;4.60;;;1.57;;
14858;SDS011;7521;51.700;6.874;2022-10-16T08:58:59;4.33;;;1.97;;
14858;SDS011;7521;51.700;6.874;2022-10-16T09:02:13;3.80;;;1.30;;
14858;SDS011;7521;51.700;6.874;2022-10-16T09:05:33;8.27;;;2.10;;
14858;SDS011;7521;51.700;6.874;2022-10-16T09:12:04;3.60;;;1.27;;
14858;SDS011;7521;51.700;6.874;2022-10-16T09:18:34;6.87;;;1.40;;
14858;SDS011;7521;51.700;6.874;2022-10-16T09:21:42;4.60;;;1.60;;
14858;SDS011;7521;51.700;6.874;2022-10-16T09:24:48;2.93;;;1.40;;
14858;SDS011;7521;51.700;6.874;2022-10-16T09:27:54;6.73;;;1.40;;
14858;SDS011;7521;51.700;6.874;2022-10-16T09:30:59;2.77;;;1.07;;
14858;SDS011;7521;51.700;6.874;2022-10-16T09:34:05;5.05;;;1.33;;
14858;SDS011;7521;51.700;6.874;2022-10-16T09:37:12;4.73;;;1.30;;
14858;SDS011;7521;51.700;6.874;2022-10-16T09:40:30;4.83;;;1.20;;
14858;SDS011;7521;51.700;6.874;2022-10-16T09:43:40;3.03;;;0.90;;
14858;SDS011;7521;51.700;6.874;2022-10-16T09:46:46;5.33;;;1.20;;
14858;SDS011;7521;51.700;6.874;2022-10-16T09:49:58;4.17;;;1.17;;
14858;SDS011;7521;51.700;6.874;2022-10-16T09:53:13;3.27;;;0.93;;
14858;SDS011;7521;51.700;6.874;2022-10-16T09:59:31;4.60;;;1.00;;
14858;SDS011;7521;51.700;6.874;2022-10-16T10:02:36;4.10;;;0.80;;
14858;SDS011;7521;51.700;6.874;2022-10-16T10:05:43;3.30;;;0.93;;
14858;SDS011;7521;51.700;6.874;2022-10-16T10:09:04;5.10;;;0.90;;
14858;SDS011;7521;51.700;6.874;2022-10-16T10:12:23;5.07;;;1.43;;
14858;SDS011;7521;51.700;6.874;2022-10-16T10:15:33;3.80;;;1.10;;
14858;SDS011;7521;51.700;6.874;2022-10-16T10:18:38;3.70;;;0.80;;
14858;SDS011;7521;51.700;6.874;2022-10-16T10:21:43;2.45;;;0.88;;
14858;SDS011;7521;51.700;6.874;2022-10-16T10:25:10;2.80;;;1.07;;
14858;SDS011;7521;51.700;6.874;2022-10-16T10:34:40;5.10;;;1.30;;
14858;SDS011;7521;51.700;6.874;2022-10-16T10:41:09;3.10;;;1.23;;
14858;SDS011;7521;51.700;6.874;2022-10-16T10:50:49;5.30;;;1.10;;
14858;SDS011;7521;51.700;6.874;2022-10-16T10:57:09;4.23;;;1.37;;
14858;SDS011;7521;51.700;6.874;2022-10-16T11:03:35;3.05;;;1.15;;
14858;SDS011;7521;51.700;6.874;2022-10-16T11:09:47;4.38;;;1.30;;
14858;SDS011;7521;51.700;6.874;2022-10-16T11:16:18;3.57;;;1.90;;
14858;SDS011;7521;51.700;6.874;2022-10-16T11:19:28;6.10;;;1.83;;
14858;SDS011;7521;51.700;6.874;2022-10-16T11:22:37;3.70;;;2.03;;
14858;SDS011;7521;51.700;6.874;2022-10-16T11:25:43;3.27;;;1.47;;
14858;SDS011;7521;51.700;6.874;2022-10-16T11:28:49;4.53;;;1.33;;
14858;SDS011;7521;51.700;6.874;2022-10-16T11:32:00;1.63;;;0.83;;
14858;SDS011;7521;51.700;6.874;2022-10-16T11:35:15;5.87;;;1.20;;
14858;SDS011;7521;51.700;6.874;2022-10-16T11:48:30;5.97;;;1.43;;
14858;SDS011;7521;51.700;6.874;2022-10-16T11:51:42;3.63;;;1.10;;
14858;SDS011;7521;51.700;6.874;2022-10-16T11:55:04;3.73;;;1.30;;
14858;SDS011;7521;51.700;6.874;2022-10-16T12:01:43;7.87;;;1.30;;
14858;SDS011;7521;51.700;6.874;2022-10-16T12:04:50;2.60;;;1.10;;
14858;SDS011;7521;51.700;6.874;2022-10-16T12:08:03;3.50;;;0.93;;
14858;SDS011;7521;51.700;6.874;2022-10-16T12:17:36;4.07;;;0.90;;
14858;SDS011;7521;51.700;6.874;2022-10-16T12:20:42;1.53;;;0.80;;
14858;SDS011;7521;51.700;6.874;2022-10-16T12:23:52;6.27;;;1.17;;
14858;SDS011;7521;51.700;6.874;2022-10-16T12:26:57;5.07;;;1.13;;
14858;SDS011;7521;51.700;6.874;2022-10-16T12:30:04;6.47;;;1.37;;
14858;SDS011;7521;51.700;6.874;2022-10-16T12:33:19;4.60;;;1.13;;
14858;SDS011;7521;51.700;6.874;2022-10-16T12:36:27;2.23;;;1.00;;
14858;SDS011;7521;51.700;6.874;2022-10-16T12:39:33;3.53;;;0.70;;
14858;SDS011;7521;51.700;6.874;2022-10-16T12:42:38;5.03;;;1.20;;
14858;SDS011;7521;51.700;6.874;2022-10-16T12:45:43;3.87;;;1.10;;
14858;SDS011;7521;51.700;6.874;2022-10-16T12:48:50;3.40;;;1.27;;
14858;SDS011;7521;51.700;6.874;2022-10-16T12:51:55;4.00;;;1.23;;
14858;SDS011;7521;51.700;6.874;2022-10-16T12:55:01;6.77;;;1.10;;
14858;SDS011;7521;51.700;6.874;2022-10-16T12:58:15;4.27;;;1.07;;
14858;SDS011;7521;51.700;6.874;2022-10-16T13:04:31;3.83;;;1.03;;
14858;SDS011;7521;51.700;6.874;2022-10-16T13:07:48;1.70;;;1.10;;
14858;SDS011;7521;51.700;6.874;2022-10-16T13:11:17;5.50;;;1.57;;
14858;SDS011;7521;51.700;6.874;2022-10-16T13:21:14;5.33;;;1.37;;
14858;SDS011;7521;51.700;6.874;2022-10-16T13:25:13;4.33;;;1.17;;
14858;SDS011;7521;51.700;6.874;2022-10-16T13:30:53;4.27;;;0.80;;
14858;SDS011;7521;51.700;6.874;2022-10-16T13:33:59;2.43;;;1.10;;
14858;SDS011;7521;51.700;6.874;2022-10-16T13:37:15;3.00;;;1.27;;
14858;SDS011;7521;51.700;6.874;2022-10-16T13:40:22;4.47;;;1.17;;
14858;SDS011;7521;51.700;6.874;2022-10-16T13:43:40;4.07;;;0.70;;
14858;SDS011;7521;51.700;6.874;2022-10-16T13:46:57;8.80;;;0.93;;
14858;SDS011;7521;51.700;6.874;2022-10-16T13:50:05;2.57;;;1.00;;
14858;SDS011;7521;51.700;6.874;2022-10-16T13:53:14;3.47;;;0.80;;
14858;SDS011;7521;51.700;6.874;2022-10-16T13:56:20;5.00;;;1.10;;
14858;SDS011;7521;51.700;6.874;2022-10-16T13:59:33;2.87;;;0.93;;
14858;SDS011;7521;51.700;6.874;2022-10-16T14:02:39;2.57;;;1.23;;
14858;SDS011;7521;51.700;6.874;2022-10-16T14:05:52;2.73;;;1.00;;
14858;SDS011;7521;51.700;6.874;2022-10-16T14:09:02;3.87;;;0.87;;
14858;SDS011;7521;51.700;6.874;2022-10-16T14:12:10;1.60;;;0.73;;
14858;SDS011;7521;51.700;6.874;2022-10-16T14:15:16;1.60;;;0.60;;
14858;SDS011;7521;51.700;6.874;2022-10-16T14:18:22;3.90;;;0.80;;
14858;SDS011;7521;51.700;6.874;2022-10-16T14:21:28;3.33;;;0.73;;
14858;SDS011;7521;51.700;6.874;2022-10-16T14:24:34;2.23;;;1.00;;
14858;SDS011;7521;51.700;6.874;2022-10-16T14:27:39;2.70;;;0.60;;
14858;SDS011;7521;51.700;6.874;2022-10-16T14:30:54;4.47;;;0.50;;
14858;SDS011;7521;51.700;6.874;2022-10-16T14:34:00;3.33;;;0.70;;
14858;SDS011;7521;51.700;6.874;2022-10-16T14:37:07;7.33;;;1.40;;
14858;SDS011;7521;51.700;6.874;2022-10-16T14:40:14;2.10;;;0.90;;
14858;SDS011;7521;51.700;6.874;2022-10-16T14:43:41;2.77;;;0.77;;
14858;SDS011;7521;51.700;6.874;2022-10-16T14:46:45;2.23;;;0.73;;
14858;SDS011;7521;51.700;6.874;2022-10-16T14:49:51;3.67;;;1.10;;
14858;SDS011;7521;51.700;6.874;2022-10-16T14:52:56;2.60;;;1.10;;
14858;SDS011;7521;51.700;6.874;2022-10-16T14:56:05;2.70;;;0.80;;
14858;SDS011;7521;51.700;6.874;2022-10-16T14:59:15;5.30;;;1.07;;
14858;SDS011;7521;51.700;6.874;2022-10-16T15:02:31;1.43;;;0.60;;
14858;SDS011;7521;51.700;6.874;2022-10-16T15:05:36;1.33;;;0.70;;
14858;SDS011;7521;51.700;6.874;2022-10-16T15:08:42;1.90;;;0.80;;
14858;SDS011;7521;51.700;6.874;2022-10-16T15:11:47;1.57;;;0.70;;
14858;SDS011;7521;51.700;6.874;2022-10-16T15:14:52;1.73;;;0.83;;
14858;SDS011;7521;51.700;6.874;2022-10-16T15:17:57;2.55;;;0.90;;
14858;SDS011;7521;51.700;6.874;2022-10-16T15:21:05;1.23;;;0.50;;
14858;SDS011;7521;51.700;6.874;2022-10-16T15:24:11;2.17;;;0.73;;
14858;SDS011;7521;51.700;6.874;2022-10-16T15:27:17;3.17;;;1.17;;
14858;SDS011;7521;51.700;6.874;2022-10-16T15:30:22;1.75;;;0.45;;
14858;SDS011;7521;51.700;6.874;2022-10-16T15:33:27;4.47;;;1.40;;
14858;SDS011;7521;51.700;6.874;2022-10-16T15:36:37;4.70;;;1.10;;
14858;SDS011;7521;51.700;6.874;2022-10-16T15:39:43;3.23;;;0.97;;
14858;SDS011;7521;51.700;6.874;2022-10-16T15:42:48;2.65;;;1.00;;
14858;SDS011;7521;51.700;6.874;2022-10-16T15:46:01;2.43;;;0.80;;
14858;SDS011;7521;51.700;6.874;2022-10-16T15:49:06;4.63;;;0.83;;
14858;SDS011;7521;51.700;6.874;2022-10-16T15:52:11;1.63;;;0.60;;
14858;SDS011;7521;51.700;6.874;2022-10-16T15:55:17;4.00;;;0.83;;
14858;SDS011;7521;51.700;6.874;2022-10-16T15:58:23;2.83;;;1.10;;
14858;SDS011;7521;51.700;6.874;2022-10-16T16:01:31;3.10;;;0.93;;
14858;SDS011;7521;51.700;6.874;2022-10-16T16:04:37;3.10;;;1.00;;
14858;SDS011;7521;51.700;6.874;2022-10-16T16:07:42;5.45;;;1.27;;
14858;SDS011;7521;51.700;6.874;2022-10-16T16:10:57;3.42;;;1.10;;
14858;SDS011;7521;51.700;6.874;2022-10-16T16:14:02;4.20;;;1.50;;
14858;SDS011;7521;51.700;6.874;2022-10-16T16:17:07;3.77;;;1.57;;
14858;SDS011;7521;51.700;6.874;2022-10-16T16:20:12;4.97;;;1.27;;
14858;SDS011;7521;51.700;6.874;2022-10-16T16:23:18;2.73;;;1.27;;
14858;SDS011;7521;51.700;6.874;2022-10-16T16:26:25;2.40;;;1.53;;
14858;SDS011;7521;51.700;6.874;2022-10-16T16:29:31;3.83;;;1.67;;
14858;SDS011;7521;51.700;6.874;2022-10-16T16:32:36;9.18;;;5.15;;
14858;SDS011;7521;51.700;6.874;2022-10-16T16:35:41;24.37;;;16.97;;
14858;SDS011;7521;51.700;6.874;2022-10-16T16:38:46;7.35;;;5.70;;
14858;SDS011;7521;51.700;6.874;2022-10-16T16:41:52;3.42;;;2.30;;
14858;SDS011;7521;51.700;6.874;2022-10-16T16:44:57;3.13;;;1.80;;
14858;SDS011;7521;51.700;6.874;2022-10-16T16:48:02;7.67;;;5.03;;
14858;SDS011;7521;51.700;6.874;2022-10-16T16:51:09;6.53;;;2.53;;
14858;SDS011;7521;51.700;6.874;2022-10-16T16:54:16;4.30;;;3.03;;
14858;SDS011;7521;51.700;6.874;2022-10-16T16:57:21;5.37;;;3.00;;
14858;SDS011;7521;51.700;6.874;2022-10-16T17:00:27;6.25;;;2.67;;
14858;SDS011;7521;51.700;6.874;2022-10-16T17:03:33;7.10;;;1.40;;
14858;SDS011;7521;51.700;6.874;2022-10-16T17:06:38;2.87;;;1.27;;
14858;SDS011;7521;51.700;6.874;2022-10-16T17:09:45;4.17;;;1.40;;
14858;SDS011;7521;51.700;6.874;2022-10-16T17:12:50;7.53;;;1.70;;
14858;SDS011;7521;51.700;6.874;2022-10-16T17:15:55;3.40;;;2.27;;
14858;SDS011;7521;51.700;6.874;2022-10-16T17:19:01;6.20;;;4.53;;
14858;SDS011;7521;51.700;6.874;2022-10-16T17:22:06;4.20;;;1.70;;
14858;SDS011;7521;51.700;6.874;2022-10-16T17:25:11;6.68;;;1.80;;
14858;SDS011;7521;51.700;6.874;2022-10-16T17:28:17;3.30;;;1.77;;
14858;SDS011;7521;51.700;6.874;2022-10-16T17:31:24;8.50;;;1.80;;
14858;SDS011;7521;51.700;6.874;2022-10-16T17:34:29;3.30;;;1.50;;
14858;SDS011;7521;51.700;6.874;2022-10-16T17:37:34;4.77;;;2.73;;
14858;SDS011;7521;51.700;6.874;2022-10-16T17:40:39;5.97;;;2.83;;
14858;SDS011;7521;51.700;6.874;2022-10-16T17:43:45;3.38;;;2.83;;
14858;SDS011;7521;51.700;6.874;2022-10-16T17:46:51;3.63;;;2.73;;
14858;SDS011;7521;51.700;6.874;2022-10-16T17:49:57;4.57;;;2.07;;
14858;SDS011;7521;51.700;6.874;2022-10-16T17:53:02;4.37;;;1.53;;
14858;SDS011;7521;51.700;6.874;2022-10-16T17:56:09;7.22;;;1.63;;
14858;SDS011;7521;51.700;6.874;2022-10-16T17:59:14;8.43;;;2.30;;
14858;SDS011;7521;51.700;6.874;2022-10-16T18:02:20;6.63;;;2.60;;
14858;SDS011;7521;51.700;6.874;2022-10-16T18:05:25;5.03;;;3.23;;
14858;SDS011;7521;51.700;6.874;2022-10-16T18:08:31;10.75;;;5.47;;
14858;SDS011;7521;51.700;6.874;2022-10-16T18:11:36;6.97;;;5.75;;
14858;SDS011;7521;51.700;6.874;2022-10-16T18:14:41;8.67;;;6.73;;
14858;SDS011;7521;51.700;6.874;2022-10-16T18:17:46;15.07;;;6.07;;
14858;SDS011;7521;51.700;6.874;2022-10-16T18:20:55;16.20;;;8.90;;
14858;SDS011;7521;51.700;6.874;2022-10-16T18:24:01;17.83;;;9.77;;
14858;SDS011;7521;51.700;6.874;2022-10-16T18:27:06;22.23;;;12.00;;
14858;SDS011;7521;51.700;6.874;2022-10-16T18:30:11;11.93;;;6.30;;
14858;SDS011;7521;51.700;6.874;2022-10-16T18:33:17;11.03;;;5.40;;
14858;SDS011;7521;51.700;6.874;2022-10-16T18:36:24;9.13;;;4.82;;
14858;SDS011;7521;51.700;6.874;2022-10-16T18:39:29;7.03;;;4.20;;
14858;SDS011;7521;51.700;6.874;2022-10-16T18:42:34;8.82;;;4.95;;
14858;SDS011;7521;51.700;6.874;2022-10-16T18:45:40;9.30;;;5.45;;
14858;SDS011;7521;51.700;6.874;2022-10-16T18:48:45;10.37;;;4.67;;
14858;SDS011;7521;51.700;6.874;2022-10-16T18:51:51;6.00;;;3.93;;
14858;SDS011;7521;51.700;6.874;2022-10-16T18:55:00;7.00;;;4.23;;
14858;SDS011;7521;51.700;6.874;2022-10-16T18:58:05;8.13;;;4.30;;
14858;SDS011;7521;51.700;6.874;2022-10-16T19:01:11;7.17;;;2.97;;
14858;SDS011;7521;51.700;6.874;2022-10-16T19:04:17;4.87;;;3.00;;
14858;SDS011;7521;51.700;6.874;2022-10-16T19:07:22;5.80;;;3.50;;
14858;SDS011;7521;51.700;6.874;2022-10-16T19:10:27;5.50;;;3.13;;
14858;SDS011;7521;51.700;6.874;2022-10-16T19:13:33;5.07;;;3.17;;
14858;SDS011;7521;51.700;6.874;2022-10-16T19:16:38;5.93;;;2.50;;
14858;SDS011;7521;51.700;6.874;2022-10-16T19:19:43;3.53;;;2.37;;
14858;SDS011;7521;51.700;6.874;2022-10-16T19:22:48;7.82;;;2.80;;
14858;SDS011;7521;51.700;6.874;2022-10-16T19:29:08;5.50;;;2.88;;
14858;SDS011;7521;51.700;6.874;2022-10-16T19:32:13;5.53;;;2.80;;
14858;SDS011;7521;51.700;6.874;2022-10-16T19:35:19;6.33;;;2.97;;
14858;SDS011;7521;51.700;6.874;2022-10-16T19:38:24;7.03;;;3.33;;
14858;SDS011;7521;51.700;6.874;2022-10-16T19:41:29;6.27;;;3.90;;
14858;SDS011;7521;51.700;6.874;2022-10-16T19:44:34;4.47;;;3.13;;
14858;SDS011;7521;51.700;6.874;2022-10-16T19:47:40;5.68;;;3.50;;
14858;SDS011;7521;51.700;6.874;2022-10-16T19:50:45;4.07;;;3.03;;
14858;SDS011;7521;51.700;6.874;2022-10-16T19:53:57;7.28;;;3.83;;
14858;SDS011;7521;51.700;6.874;2022-10-16T19:57:02;6.67;;;3.90;;
14858;SDS011;7521;51.700;6.874;2022-10-16T20:00:08;16.87;;;13.90;;
14858;SDS011;7521;51.700;6.874;2022-10-16T20:03:13;7.73;;;6.70;;
14858;SDS011;7521;51.700;6.874;2022-10-16T20:06:19;9.90;;;3.93;;
14858;SDS011;7521;51.700;6.874;2022-10-16T20:09:24;5.33;;;4.20;;
14858;SDS011;7521;51.700;6.874;2022-10-16T20:12:29;7.43;;;4.25;;
14858;SDS011;7521;51.700;6.874;2022-10-16T20:15:36;5.10;;;3.80;;
14858;SDS011;7521;51.700;6.874;2022-10-16T20:18:41;6.20;;;4.00;;
14858;SDS011;7521;51.700;6.874;2022-10-16T20:21:46;4.90;;;3.75;;
14858;SDS011;7521;51.700;6.874;2022-10-16T20:24:51;4.82;;;3.88;;
14858;SDS011;7521;51.700;6.874;2022-10-16T20:27:56;5.77;;;4.30;;
14858;SDS011;7521;51.700;6.874;2022-10-16T20:31:05;9.18;;;4.03;;